sensor_id;sensor_type;location;lat;lon;timestamp;P1;durP1;ratioP1;P2;durP2;ratioP2
28625;SDS011;18905;42.668;23.364;2023-07-31T00:00:24;5.82;;;3.83;;
28625;SDS011;18905;42.668;23.364;2023-07-31T00:02:49;6.82;;;2.70;;
28625;SDS011;18905;42.668;23.364;2023-07-31T00:05:15;5.18;;;3.10;;
28625;SDS011;18905;42.668;23.364;2023-07-31T00:07:40;3.65;;;3.20;;
28625;SDS011;18905;42.668;23.364;2023-07-31T00:10:06;5.55;;;3.25;;
28625;SDS011;18905;42.668;23.364;2023-07-31T00:12:31;3.50;;;3.20;;
28625;SDS011;18905;42.668;23.364;2023-07-31T00:14:57;3.53;;;3.13;;
28625;SDS011;18905;42.668;23.364;2023-07-31T00:17:23;4.70;;;3.53;;
28625;SDS011;18905;42.668;23.364;2023-07-31T00:19:48;4.93;;;3.50;;
28625;SDS011;18905;42.668;23.364;2023-07-31T00:22:15;4.78;;;3.47;;
28625;SDS011;18905;42.668;23.364;2023-07-31T00:24:41;4.75;;;3.45;;
28625;SDS011;18905;42.668;23.364;2023-07-31T00:27:06;3.92;;;3.25;;
28625;SDS011;18905;42.668;23.364;2023-07-31T00:29:32;4.35;;;3.53;;
28625;SDS011;18905;42.668;23.364;2023-07-31T00:31:57;4.68;;;3.58;;
28625;SDS011;18905;42.668;23.364;2023-07-31T00:34:22;6.93;;;3.83;;
28625;SDS011;18905;42.668;23.364;2023-07-31T00:36:48;5.85;;;3.85;;
28625;SDS011;18905;42.668;23.364;2023-07-31T00:39:13;7.80;;;3.83;;
28625;SDS011;18905;42.668;23.364;2023-07-31T00:41:38;4.35;;;3.70;;
28625;SDS011;18905;42.668;23.364;2023-07-31T00:44:04;4.88;;;3.72;;
28625;SDS011;18905;42.668;23.364;2023-07-31T00:46:29;4.97;;;4.40;;
28625;SDS011;18905;42.668;23.364;2023-07-31T00:48:55;8.45;;;4.63;;
28625;SDS011;18905;42.668;23.364;2023-07-31T00:51:20;5.20;;;4.22;;
28625;SDS011;18905;42.668;23.364;2023-07-31T00:53:46;5.50;;;4.45;;
28625;SDS011;18905;42.668;23.364;2023-07-31T00:56:12;6.90;;;4.90;;
28625;SDS011;18905;42.668;23.364;2023-07-31T00:58:37;5.90;;;4.80;;
28625;SDS011;18905;42.668;23.364;2023-07-31T01:01:03;6.55;;;5.22;;
28625;SDS011;18905;42.668;23.364;2023-07-31T01:03:28;8.20;;;6.45;;
28625;SDS011;18905;42.668;23.364;2023-07-31T01:08:40;10.32;;;7.55;;
28625;SDS011;18905;42.668;23.364;2023-07-31T01:13:44;10.65;;;8.75;;
28625;SDS011;18905;42.668;23.364;2023-07-31T01:16:11;8.95;;;8.00;;
28625;SDS011;18905;42.668;23.364;2023-07-31T01:18:37;10.60;;;9.02;;
28625;SDS011;18905;42.668;23.364;2023-07-31T01:21:18;12.63;;;9.88;;
28625;SDS011;18905;42.668;23.364;2023-07-31T01:24:36;11.32;;;9.63;;
28625;SDS011;18905;42.668;23.364;2023-07-31T01:26:55;12.70;;;10.45;;
28625;SDS011;18905;42.668;23.364;2023-07-31T01:29:35;12.68;;;10.95;;
28625;SDS011;18905;42.668;23.364;2023-07-31T01:32:35;13.30;;;11.55;;
28625;SDS011;18905;42.668;23.364;2023-07-31T01:35:04;15.68;;;12.98;;
28625;SDS011;18905;42.668;23.364;2023-07-31T01:37:29;15.88;;;12.98;;
28625;SDS011;18905;42.668;23.364;2023-07-31T01:39:55;17.10;;;14.93;;
28625;SDS011;18905;42.668;23.364;2023-07-31T01:42:20;20.05;;;15.15;;
28625;SDS011;18905;42.668;23.364;2023-07-31T01:44:46;20.00;;;15.25;;
28625;SDS011;18905;42.668;23.364;2023-07-31T01:47:11;18.88;;;15.73;;
28625;SDS011;18905;42.668;23.364;2023-07-31T01:49:36;20.95;;;16.73;;
28625;SDS011;18905;42.668;23.364;2023-07-31T01:52:02;21.48;;;18.95;;
28625;SDS011;18905;42.668;23.364;2023-07-31T01:54:27;22.02;;;18.27;;
28625;SDS011;18905;42.668;23.364;2023-07-31T01:56:53;26.27;;;20.98;;
28625;SDS011;18905;42.668;23.364;2023-07-31T01:59:18;24.83;;;20.13;;
28625;SDS011;18905;42.668;23.364;2023-07-31T02:01:43;23.38;;;20.65;;
28625;SDS011;18905;42.668;23.364;2023-07-31T02:04:09;30.60;;;22.73;;
28625;SDS011;18905;42.668;23.364;2023-07-31T02:06:34;28.92;;;22.75;;
28625;SDS011;18905;42.668;23.364;2023-07-31T02:08:59;28.98;;;22.50;;
28625;SDS011;18905;42.668;23.364;2023-07-31T02:11:25;26.90;;;22.83;;
28625;SDS011;18905;42.668;23.364;2023-07-31T02:13:50;30.25;;;24.33;;
28625;SDS011;18905;42.668;23.364;2023-07-31T02:16:15;30.70;;;23.92;;
28625;SDS011;18905;42.668;23.364;2023-07-31T02:18:41;28.15;;;23.08;;
28625;SDS011;18905;42.668;23.364;2023-07-31T02:21:06;31.35;;;24.27;;
28625;SDS011;18905;42.668;23.364;2023-07-31T02:23:32;28.88;;;23.48;;
28625;SDS011;18905;42.668;23.364;2023-07-31T02:25:57;32.10;;;24.05;;
28625;SDS011;18905;42.668;23.364;2023-07-31T02:28:22;28.63;;;23.35;;
28625;SDS011;18905;42.668;23.364;2023-07-31T02:30:49;30.58;;;24.65;;
28625;SDS011;18905;42.668;23.364;2023-07-31T02:33:15;30.58;;;24.42;;
28625;SDS011;18905;42.668;23.364;2023-07-31T02:35:41;29.13;;;25.02;;
28625;SDS011;18905;42.668;23.364;2023-07-31T02:38:06;32.33;;;24.77;;
28625;SDS011;18905;42.668;23.364;2023-07-31T02:40:32;31.90;;;25.35;;
28625;SDS011;18905;42.668;23.364;2023-07-31T02:42:57;32.03;;;25.85;;
28625;SDS011;18905;42.668;23.364;2023-07-31T02:45:23;30.45;;;24.60;;
28625;SDS011;18905;42.668;23.364;2023-07-31T02:47:51;28.45;;;24.05;;
28625;SDS011;18905;42.668;23.364;2023-07-31T02:50:16;28.55;;;24.30;;
28625;SDS011;18905;42.668;23.364;2023-07-31T02:52:41;28.52;;;24.83;;
28625;SDS011;18905;42.668;23.364;2023-07-31T02:55:07;32.97;;;25.60;;
28625;SDS011;18905;42.668;23.364;2023-07-31T02:57:33;28.02;;;23.90;;
28625;SDS011;18905;42.668;23.364;2023-07-31T02:59:59;30.88;;;24.45;;
28625;SDS011;18905;42.668;23.364;2023-07-31T03:02:24;31.30;;;25.33;;
28625;SDS011;18905;42.668;23.364;2023-07-31T03:04:49;30.70;;;24.60;;
28625;SDS011;18905;42.668;23.364;2023-07-31T03:07:15;29.33;;;23.85;;
28625;SDS011;18905;42.668;23.364;2023-07-31T03:09:40;30.95;;;23.77;;
28625;SDS011;18905;42.668;23.364;2023-07-31T03:12:06;28.80;;;24.25;;
28625;SDS011;18905;42.668;23.364;2023-07-31T03:14:32;30.85;;;25.02;;
28625;SDS011;18905;42.668;23.364;2023-07-31T03:16:57;27.95;;;24.10;;
28625;SDS011;18905;42.668;23.364;2023-07-31T03:19:22;30.65;;;23.58;;
28625;SDS011;18905;42.668;23.364;2023-07-31T03:21:48;29.30;;;23.58;;
28625;SDS011;18905;42.668;23.364;2023-07-31T03:24:13;29.27;;;24.35;;
28625;SDS011;18905;42.668;23.364;2023-07-31T03:26:38;25.83;;;22.77;;
28625;SDS011;18905;42.668;23.364;2023-07-31T03:29:06;29.83;;;25.33;;
28625;SDS011;18905;42.668;23.364;2023-07-31T03:31:32;30.05;;;24.27;;
28625;SDS011;18905;42.668;23.364;2023-07-31T03:33:57;29.77;;;24.95;;
28625;SDS011;18905;42.668;23.364;2023-07-31T03:36:22;30.15;;;25.05;;
28625;SDS011;18905;42.668;23.364;2023-07-31T03:38:48;30.52;;;24.95;;
28625;SDS011;18905;42.668;23.364;2023-07-31T03:41:13;34.25;;;25.13;;
28625;SDS011;18905;42.668;23.364;2023-07-31T03:43:39;31.23;;;25.33;;
28625;SDS011;18905;42.668;23.364;2023-07-31T03:46:04;32.40;;;24.73;;
28625;SDS011;18905;42.668;23.364;2023-07-31T03:48:30;30.52;;;24.73;;
28625;SDS011;18905;42.668;23.364;2023-07-31T03:50:55;34.88;;;25.55;;
28625;SDS011;18905;42.668;23.364;2023-07-31T03:53:21;31.58;;;25.38;;
28625;SDS011;18905;42.668;23.364;2023-07-31T03:55:46;32.83;;;25.88;;
28625;SDS011;18905;42.668;23.364;2023-07-31T03:58:12;34.20;;;26.60;;
28625;SDS011;18905;42.668;23.364;2023-07-31T04:00:37;34.47;;;25.48;;
28625;SDS011;18905;42.668;23.364;2023-07-31T04:03:03;34.75;;;26.25;;
28625;SDS011;18905;42.668;23.364;2023-07-31T04:05:29;34.03;;;26.08;;
28625;SDS011;18905;42.668;23.364;2023-07-31T04:07:56;33.00;;;26.83;;
28625;SDS011;18905;42.668;23.364;2023-07-31T04:10:22;37.17;;;28.23;;
28625;SDS011;18905;42.668;23.364;2023-07-31T04:12:47;33.25;;;26.77;;
28625;SDS011;18905;42.668;23.364;2023-07-31T04:15:13;34.83;;;26.25;;
28625;SDS011;18905;42.668;23.364;2023-07-31T04:17:39;35.45;;;26.85;;
28625;SDS011;18905;42.668;23.364;2023-07-31T04:20:04;37.20;;;26.05;;
28625;SDS011;18905;42.668;23.364;2023-07-31T04:22:30;33.92;;;26.58;;
28625;SDS011;18905;42.668;23.364;2023-07-31T04:24:55;31.35;;;25.80;;
28625;SDS011;18905;42.668;23.364;2023-07-31T04:27:21;39.90;;;27.25;;
28625;SDS011;18905;42.668;23.364;2023-07-31T04:29:46;36.55;;;26.17;;
28625;SDS011;18905;42.668;23.364;2023-07-31T04:32:12;35.28;;;26.25;;
28625;SDS011;18905;42.668;23.364;2023-07-31T04:34:38;35.47;;;26.00;;
28625;SDS011;18905;42.668;23.364;2023-07-31T04:37:03;42.55;;;28.45;;
28625;SDS011;18905;42.668;23.364;2023-07-31T04:39:28;33.78;;;25.83;;
28625;SDS011;18905;42.668;23.364;2023-07-31T04:41:54;39.92;;;27.30;;
28625;SDS011;18905;42.668;23.364;2023-07-31T04:44:19;34.85;;;26.88;;
28625;SDS011;18905;42.668;23.364;2023-07-31T04:46:45;32.65;;;25.98;;
28625;SDS011;18905;42.668;23.364;2023-07-31T04:49:10;35.05;;;27.00;;
28625;SDS011;18905;42.668;23.364;2023-07-31T04:51:36;34.53;;;26.25;;
28625;SDS011;18905;42.668;23.364;2023-07-31T04:54:01;32.92;;;25.38;;
28625;SDS011;18905;42.668;23.364;2023-07-31T04:56:27;31.90;;;24.38;;
28625;SDS011;18905;42.668;23.364;2023-07-31T04:58:52;34.50;;;24.92;;
28625;SDS011;18905;42.668;23.364;2023-07-31T05:01:17;32.35;;;24.25;;
28625;SDS011;18905;42.668;23.364;2023-07-31T05:03:45;31.45;;;24.23;;
28625;SDS011;18905;42.668;23.364;2023-07-31T05:06:10;32.38;;;24.75;;
28625;SDS011;18905;42.668;23.364;2023-07-31T05:08:35;30.98;;;24.95;;
28625;SDS011;18905;42.668;23.364;2023-07-31T05:11:01;30.10;;;22.45;;
28625;SDS011;18905;42.668;23.364;2023-07-31T05:13:27;25.70;;;21.63;;
28625;SDS011;18905;42.668;23.364;2023-07-31T05:15:52;30.27;;;22.40;;
28625;SDS011;18905;42.668;23.364;2023-07-31T05:18:18;24.85;;;21.13;;
28625;SDS011;18905;42.668;23.364;2023-07-31T05:20:44;26.20;;;21.13;;
28625;SDS011;18905;42.668;23.364;2023-07-31T05:23:09;24.70;;;20.30;;
28625;SDS011;18905;42.668;23.364;2023-07-31T05:25:35;24.30;;;19.10;;
28625;SDS011;18905;42.668;23.364;2023-07-31T05:28:00;24.30;;;20.60;;
28625;SDS011;18905;42.668;23.364;2023-07-31T05:30:25;26.73;;;20.77;;
28625;SDS011;18905;42.668;23.364;2023-07-31T05:32:51;22.15;;;18.30;;
28625;SDS011;18905;42.668;23.364;2023-07-31T05:35:16;19.17;;;16.88;;
28625;SDS011;18905;42.668;23.364;2023-07-31T05:37:42;18.50;;;16.30;;
28625;SDS011;18905;42.668;23.364;2023-07-31T05:40:07;17.73;;;15.20;;
28625;SDS011;18905;42.668;23.364;2023-07-31T05:42:33;17.80;;;15.38;;
28625;SDS011;18905;42.668;23.364;2023-07-31T05:44:59;19.42;;;15.65;;
28625;SDS011;18905;42.668;23.364;2023-07-31T05:47:25;18.40;;;14.68;;
28625;SDS011;18905;42.668;23.364;2023-07-31T05:49:50;17.25;;;14.65;;
28625;SDS011;18905;42.668;23.364;2023-07-31T05:52:17;16.48;;;13.13;;
28625;SDS011;18905;42.668;23.364;2023-07-31T05:54:43;14.80;;;13.02;;
28625;SDS011;18905;42.668;23.364;2023-07-31T05:57:09;13.68;;;12.23;;
28625;SDS011;18905;42.668;23.364;2023-07-31T05:59:34;14.85;;;11.20;;
28625;SDS011;18905;42.668;23.364;2023-07-31T06:01:59;15.50;;;11.23;;
28625;SDS011;18905;42.668;23.364;2023-07-31T06:04:25;14.27;;;10.65;;
28625;SDS011;18905;42.668;23.364;2023-07-31T06:06:50;12.27;;;10.27;;
28625;SDS011;18905;42.668;23.364;2023-07-31T06:09:16;12.52;;;11.15;;
28625;SDS011;18905;42.668;23.364;2023-07-31T06:11:41;16.13;;;10.15;;
28625;SDS011;18905;42.668;23.364;2023-07-31T06:14:07;13.18;;;9.63;;
28625;SDS011;18905;42.668;23.364;2023-07-31T06:16:32;9.52;;;8.07;;
28625;SDS011;18905;42.668;23.364;2023-07-31T06:18:58;10.00;;;8.35;;
28625;SDS011;18905;42.668;23.364;2023-07-31T06:21:23;10.55;;;7.13;;
28625;SDS011;18905;42.668;23.364;2023-07-31T06:23:48;10.00;;;7.38;;
28625;SDS011;18905;42.668;23.364;2023-07-31T06:26:14;9.65;;;6.25;;
28625;SDS011;18905;42.668;23.364;2023-07-31T06:28:39;7.10;;;6.15;;
28625;SDS011;18905;42.668;23.364;2023-07-31T06:31:05;7.93;;;6.13;;
28625;SDS011;18905;42.668;23.364;2023-07-31T06:33:30;6.95;;;6.20;;
28625;SDS011;18905;42.668;23.364;2023-07-31T06:35:55;6.00;;;5.25;;
28625;SDS011;18905;42.668;23.364;2023-07-31T06:38:24;5.80;;;5.20;;
28625;SDS011;18905;42.668;23.364;2023-07-31T06:40:51;6.57;;;5.90;;
28625;SDS011;18905;42.668;23.364;2023-07-31T06:45:51;6.13;;;4.90;;
28625;SDS011;18905;42.668;23.364;2023-07-31T06:48:17;7.97;;;5.38;;
28625;SDS011;18905;42.668;23.364;2023-07-31T06:50:43;6.53;;;5.30;;
28625;SDS011;18905;42.668;23.364;2023-07-31T06:53:08;5.97;;;5.10;;
28625;SDS011;18905;42.668;23.364;2023-07-31T07:00:44;5.22;;;4.65;;
28625;SDS011;18905;42.668;23.364;2023-07-31T07:03:10;8.73;;;4.40;;
28625;SDS011;18905;42.668;23.364;2023-07-31T07:05:35;11.60;;;4.85;;
28625;SDS011;18905;42.668;23.364;2023-07-31T07:08:01;6.60;;;4.53;;
28625;SDS011;18905;42.668;23.364;2023-07-31T07:10:27;6.03;;;4.07;;
28625;SDS011;18905;42.668;23.364;2023-07-31T07:12:53;5.45;;;4.00;;
28625;SDS011;18905;42.668;23.364;2023-07-31T07:15:20;7.00;;;4.35;;
28625;SDS011;18905;42.668;23.364;2023-07-31T07:17:51;6.93;;;3.88;;
28625;SDS011;18905;42.668;23.364;2023-07-31T07:20:17;5.68;;;4.25;;
28625;SDS011;18905;42.668;23.364;2023-07-31T07:22:45;4.93;;;4.00;;
28625;SDS011;18905;42.668;23.364;2023-07-31T07:25:10;7.55;;;4.50;;
28625;SDS011;18905;42.668;23.364;2023-07-31T07:27:36;6.07;;;3.85;;
28625;SDS011;18905;42.668;23.364;2023-07-31T07:30:02;6.13;;;4.43;;
28625;SDS011;18905;42.668;23.364;2023-07-31T07:32:28;4.22;;;3.72;;
28625;SDS011;18905;42.668;23.364;2023-07-31T07:34:54;6.20;;;4.05;;
28625;SDS011;18905;42.668;23.364;2023-07-31T07:37:21;5.13;;;4.07;;
28625;SDS011;18905;42.668;23.364;2023-07-31T07:42:21;5.88;;;4.28;;
28625;SDS011;18905;42.668;23.364;2023-07-31T07:44:47;6.93;;;3.95;;
28625;SDS011;18905;42.668;23.364;2023-07-31T07:47:13;8.40;;;3.97;;
28625;SDS011;18905;42.668;23.364;2023-07-31T07:49:39;4.93;;;4.00;;
28625;SDS011;18905;42.668;23.364;2023-07-31T07:52:05;6.55;;;4.07;;
28625;SDS011;18905;42.668;23.364;2023-07-31T07:54:34;7.22;;;4.22;;
28625;SDS011;18905;42.668;23.364;2023-07-31T07:56:59;6.82;;;4.00;;
28625;SDS011;18905;42.668;23.364;2023-07-31T07:59:25;6.55;;;3.35;;
28625;SDS011;18905;42.668;23.364;2023-07-31T08:01:50;5.50;;;3.28;;
28625;SDS011;18905;42.668;23.364;2023-07-31T08:04:16;4.22;;;3.25;;
28625;SDS011;18905;42.668;23.364;2023-07-31T08:42:54;5.15;;;3.40;;
28625;SDS011;18905;42.668;23.364;2023-07-31T08:45:27;5.95;;;3.72;;
28625;SDS011;18905;42.668;23.364;2023-07-31T08:50:28;4.70;;;3.08;;
28625;SDS011;18905;42.668;23.364;2023-07-31T08:52:53;5.03;;;3.10;;
28625;SDS011;18905;42.668;23.364;2023-07-31T08:55:19;4.72;;;3.17;;
28625;SDS011;18905;42.668;23.364;2023-07-31T09:00:26;4.82;;;3.45;;
28625;SDS011;18905;42.668;23.364;2023-07-31T09:03:02;6.70;;;3.47;;
28625;SDS011;18905;42.668;23.364;2023-07-31T09:05:28;5.97;;;3.45;;
28625;SDS011;18905;42.668;23.364;2023-07-31T09:10:33;6.88;;;2.95;;
28625;SDS011;18905;42.668;23.364;2023-07-31T09:12:59;5.28;;;3.10;;
28625;SDS011;18905;42.668;23.364;2023-07-31T09:15:24;5.60;;;2.88;;
28625;SDS011;18905;42.668;23.364;2023-07-31T09:17:58;3.38;;;2.85;;
28625;SDS011;18905;42.668;23.364;2023-07-31T09:23:19;6.78;;;2.75;;
28625;SDS011;18905;42.668;23.364;2023-07-31T09:25:46;5.05;;;3.45;;
28625;SDS011;18905;42.668;23.364;2023-07-31T09:28:12;4.95;;;2.95;;
28625;SDS011;18905;42.668;23.364;2023-07-31T09:30:47;6.00;;;3.30;;
28625;SDS011;18905;42.668;23.364;2023-07-31T09:33:14;5.70;;;3.30;;
28625;SDS011;18905;42.668;23.364;2023-07-31T09:35:40;4.90;;;2.80;;
28625;SDS011;18905;42.668;23.364;2023-07-31T09:40:34;3.90;;;2.83;;
28625;SDS011;18905;42.668;23.364;2023-07-31T09:48:12;4.82;;;3.22;;
28625;SDS011;18905;42.668;23.364;2023-07-31T09:50:44;6.88;;;3.13;;
28625;SDS011;18905;42.668;23.364;2023-07-31T09:53:11;4.68;;;3.00;;
28625;SDS011;18905;42.668;23.364;2023-07-31T09:55:37;3.95;;;3.20;;
28625;SDS011;18905;42.668;23.364;2023-07-31T09:58:04;3.72;;;2.85;;
28625;SDS011;18905;42.668;23.364;2023-07-31T10:00:31;3.55;;;2.90;;
28625;SDS011;18905;42.668;23.364;2023-07-31T10:03:00;5.00;;;2.90;;
28625;SDS011;18905;42.668;23.364;2023-07-31T10:05:40;4.93;;;2.88;;
28625;SDS011;18905;42.668;23.364;2023-07-31T10:08:08;3.63;;;2.53;;
28625;SDS011;18905;42.668;23.364;2023-07-31T10:10:40;5.63;;;2.40;;
28625;SDS011;18905;42.668;23.364;2023-07-31T10:13:08;2.80;;;2.50;;
28625;SDS011;18905;42.668;23.364;2023-07-31T10:15:34;6.40;;;2.50;;
28625;SDS011;18905;42.668;23.364;2023-07-31T10:20:36;5.68;;;2.50;;
28625;SDS011;18905;42.668;23.364;2023-07-31T10:28:25;3.67;;;2.53;;
28625;SDS011;18905;42.668;23.364;2023-07-31T10:30:51;3.38;;;2.25;;
28625;SDS011;18905;42.668;23.364;2023-07-31T10:33:17;3.40;;;2.10;;
28625;SDS011;18905;42.668;23.364;2023-07-31T10:35:46;5.80;;;2.20;;
28625;SDS011;18905;42.668;23.364;2023-07-31T10:38:12;4.47;;;2.20;;
28625;SDS011;18905;42.668;23.364;2023-07-31T10:40:38;2.80;;;2.08;;
28625;SDS011;18905;42.668;23.364;2023-07-31T10:43:04;2.92;;;2.15;;
28625;SDS011;18905;42.668;23.364;2023-07-31T10:45:34;3.88;;;2.22;;
28625;SDS011;18905;42.668;23.364;2023-07-31T10:48:14;2.58;;;2.28;;
28625;SDS011;18905;42.668;23.364;2023-07-31T10:50:47;2.40;;;2.20;;
28625;SDS011;18905;42.668;23.364;2023-07-31T10:53:26;2.10;;;1.90;;
28625;SDS011;18905;42.668;23.364;2023-07-31T10:56:04;4.82;;;2.28;;
28625;SDS011;18905;42.668;23.364;2023-07-31T10:58:32;7.18;;;2.00;;
28625;SDS011;18905;42.668;23.364;2023-07-31T11:01:02;8.93;;;2.00;;
28625;SDS011;18905;42.668;23.364;2023-07-31T11:06:11;2.65;;;2.10;;
28625;SDS011;18905;42.668;23.364;2023-07-31T11:08:47;4.90;;;2.25;;
28625;SDS011;18905;42.668;23.364;2023-07-31T11:11:14;3.92;;;2.55;;
28625;SDS011;18905;42.668;23.364;2023-07-31T11:13:48;3.58;;;2.10;;
28625;SDS011;18905;42.668;23.364;2023-07-31T11:16:15;2.40;;;2.20;;
28625;SDS011;18905;42.668;23.364;2023-07-31T11:18:42;2.30;;;2.00;;
28625;SDS011;18905;42.668;23.364;2023-07-31T11:21:15;2.65;;;2.10;;
28625;SDS011;18905;42.668;23.364;2023-07-31T11:23:46;2.28;;;1.80;;
28625;SDS011;18905;42.668;23.364;2023-07-31T11:26:12;3.30;;;1.90;;
28625;SDS011;18905;42.668;23.364;2023-07-31T11:28:38;3.40;;;2.22;;
28625;SDS011;18905;42.668;23.364;2023-07-31T11:31:03;2.28;;;2.00;;
28625;SDS011;18905;42.668;23.364;2023-07-31T11:33:30;2.45;;;1.85;;
28625;SDS011;18905;42.668;23.364;2023-07-31T11:35:56;2.92;;;1.83;;
28625;SDS011;18905;42.668;23.364;2023-07-31T11:40:51;2.58;;;2.17;;
28625;SDS011;18905;42.668;23.364;2023-07-31T11:48:29;2.42;;;1.90;;
28625;SDS011;18905;42.668;23.364;2023-07-31T12:01:19;4.20;;;2.90;;
28625;SDS011;18905;42.668;23.364;2023-07-31T12:03:47;6.03;;;2.80;;
28625;SDS011;18905;42.668;23.364;2023-07-31T12:06:14;3.75;;;2.78;;
28625;SDS011;18905;42.668;23.364;2023-07-31T12:08:39;5.93;;;2.75;;
28625;SDS011;18905;42.668;23.364;2023-07-31T12:11:05;4.03;;;2.85;;
28625;SDS011;18905;42.668;23.364;2023-07-31T12:16:06;4.53;;;3.10;;
28625;SDS011;18905;42.668;23.364;2023-07-31T12:18:36;6.32;;;3.22;;
28625;SDS011;18905;42.668;23.364;2023-07-31T12:23:37;3.88;;;3.33;;
28625;SDS011;18905;42.668;23.364;2023-07-31T12:26:07;6.82;;;3.80;;
28625;SDS011;18905;42.668;23.364;2023-07-31T12:28:50;3.80;;;3.40;;
28625;SDS011;18905;42.668;23.364;2023-07-31T12:31:22;4.47;;;3.47;;
28625;SDS011;18905;42.668;23.364;2023-07-31T12:41:33;10.68;;;5.00;;
28625;SDS011;18905;42.668;23.364;2023-07-31T12:43:59;6.43;;;4.78;;
28625;SDS011;18905;42.668;23.364;2023-07-31T12:46:24;8.43;;;5.32;;
28625;SDS011;18905;42.668;23.364;2023-07-31T12:48:49;5.65;;;5.05;;
28625;SDS011;18905;42.668;23.364;2023-07-31T13:01:35;5.65;;;4.30;;
28625;SDS011;18905;42.668;23.364;2023-07-31T13:06:36;7.65;;;5.65;;
28625;SDS011;18905;42.668;23.364;2023-07-31T13:09:02;6.45;;;5.40;;
28625;SDS011;18905;42.668;23.364;2023-07-31T13:52:50;5.25;;;4.43;;
28625;SDS011;18905;42.668;23.364;2023-07-31T14:00:25;6.10;;;4.35;;
28625;SDS011;18905;42.668;23.364;2023-07-31T14:02:51;5.30;;;4.10;;
28625;SDS011;18905;42.668;23.364;2023-07-31T14:05:16;4.97;;;4.07;;
28625;SDS011;18905;42.668;23.364;2023-07-31T14:07:41;12.18;;;4.80;;
28625;SDS011;18905;42.668;23.364;2023-07-31T14:10:07;5.25;;;4.13;;
28625;SDS011;18905;42.668;23.364;2023-07-31T14:12:32;5.93;;;4.10;;
28625;SDS011;18905;42.668;23.364;2023-07-31T14:14:58;4.07;;;3.67;;
28625;SDS011;18905;42.668;23.364;2023-07-31T14:17:23;5.05;;;4.10;;
28625;SDS011;18905;42.668;23.364;2023-07-31T14:19:49;8.40;;;5.43;;
28625;SDS011;18905;42.668;23.364;2023-07-31T14:22:15;5.93;;;4.07;;
28625;SDS011;18905;42.668;23.364;2023-07-31T14:24:41;4.78;;;4.03;;
28625;SDS011;18905;42.668;23.364;2023-07-31T14:27:06;4.70;;;4.13;;
28625;SDS011;18905;42.668;23.364;2023-07-31T14:29:32;7.50;;;4.40;;
28625;SDS011;18905;42.668;23.364;2023-07-31T14:31:57;7.40;;;4.40;;
28625;SDS011;18905;42.668;23.364;2023-07-31T14:34:22;4.47;;;3.90;;
28625;SDS011;18905;42.668;23.364;2023-07-31T14:36:48;6.72;;;3.90;;
28625;SDS011;18905;42.668;23.364;2023-07-31T14:39:13;6.88;;;3.83;;
28625;SDS011;18905;42.668;23.364;2023-07-31T14:41:38;9.93;;;3.60;;
28625;SDS011;18905;42.668;23.364;2023-07-31T14:44:04;5.13;;;3.65;;
28625;SDS011;18905;42.668;23.364;2023-07-31T14:46:29;6.60;;;3.92;;
28625;SDS011;18905;42.668;23.364;2023-07-31T14:48:54;9.88;;;3.80;;
28625;SDS011;18905;42.668;23.364;2023-07-31T14:51:20;4.78;;;3.67;;
28625;SDS011;18905;42.668;23.364;2023-07-31T14:53:46;5.55;;;3.90;;
28625;SDS011;18905;42.668;23.364;2023-07-31T14:56:12;5.75;;;4.00;;
28625;SDS011;18905;42.668;23.364;2023-07-31T14:58:37;4.78;;;3.60;;
28625;SDS011;18905;42.668;23.364;2023-07-31T15:01:03;14.63;;;4.22;;
28625;SDS011;18905;42.668;23.364;2023-07-31T15:03:28;6.43;;;3.42;;
28625;SDS011;18905;42.668;23.364;2023-07-31T15:05:53;4.00;;;3.60;;
28625;SDS011;18905;42.668;23.364;2023-07-31T15:08:19;3.65;;;3.35;;
28625;SDS011;18905;42.668;23.364;2023-07-31T15:10:44;4.78;;;3.03;;
28625;SDS011;18905;42.668;23.364;2023-07-31T15:13:09;7.70;;;3.58;;
28625;SDS011;18905;42.668;23.364;2023-07-31T15:15:35;4.13;;;3.70;;
28625;SDS011;18905;42.668;23.364;2023-07-31T15:18:00;9.27;;;3.50;;
28625;SDS011;18905;42.668;23.364;2023-07-31T15:20:26;5.22;;;3.42;;
28625;SDS011;18905;42.668;23.364;2023-07-31T15:22:51;4.00;;;3.08;;
28625;SDS011;18905;42.668;23.364;2023-07-31T15:25:16;5.65;;;3.50;;
28625;SDS011;18905;42.668;23.364;2023-07-31T15:27:42;4.78;;;2.90;;
28625;SDS011;18905;42.668;23.364;2023-07-31T15:30:07;7.10;;;3.50;;
28625;SDS011;18905;42.668;23.364;2023-07-31T15:32:33;3.30;;;3.00;;
28625;SDS011;18905;42.668;23.364;2023-07-31T15:34:58;5.75;;;2.67;;
28625;SDS011;18905;42.668;23.364;2023-07-31T15:37:24;6.95;;;2.70;;
28625;SDS011;18905;42.668;23.364;2023-07-31T15:45:00;6.65;;;2.85;;
28625;SDS011;18905;42.668;23.364;2023-07-31T15:47:25;7.05;;;2.63;;
28625;SDS011;18905;42.668;23.364;2023-07-31T15:49:50;2.83;;;2.47;;
28625;SDS011;18905;42.668;23.364;2023-07-31T15:52:16;6.85;;;2.53;;
28625;SDS011;18905;42.668;23.364;2023-07-31T16:15:22;5.15;;;2.20;;
28625;SDS011;18905;42.668;23.364;2023-07-31T16:17:48;4.00;;;2.28;;
28625;SDS011;18905;42.668;23.364;2023-07-31T16:20:13;3.33;;;2.13;;
28625;SDS011;18905;42.668;23.364;2023-07-31T16:22:39;2.42;;;1.70;;
28625;SDS011;18905;42.668;23.364;2023-07-31T17:01:16;5.40;;;2.30;;
28625;SDS011;18905;42.668;23.364;2023-07-31T17:03:42;7.78;;;1.92;;
28625;SDS011;18905;42.668;23.364;2023-07-31T17:22:33;5.10;;;2.30;;
28625;SDS011;18905;42.668;23.364;2023-07-31T17:24:59;2.53;;;1.85;;
28625;SDS011;18905;42.668;23.364;2023-07-31T17:27:25;3.55;;;1.98;;
28625;SDS011;18905;42.668;23.364;2023-07-31T17:29:52;1.83;;;1.70;;
28625;SDS011;18905;42.668;23.364;2023-07-31T17:32:17;5.25;;;1.95;;
28625;SDS011;18905;42.668;23.364;2023-07-31T17:34:43;3.17;;;2.00;;
28625;SDS011;18905;42.668;23.364;2023-07-31T17:37:11;4.28;;;2.00;;
28625;SDS011;18905;42.668;23.364;2023-07-31T17:39:37;4.78;;;2.42;;
28625;SDS011;18905;42.668;23.364;2023-07-31T17:42:05;5.57;;;2.47;;
28625;SDS011;18905;42.668;23.364;2023-07-31T17:44:31;3.78;;;2.72;;
28625;SDS011;18905;42.668;23.364;2023-07-31T17:46:56;3.45;;;2.45;;
28625;SDS011;18905;42.668;23.364;2023-07-31T18:08:09;3.40;;;2.40;;
28625;SDS011;18905;42.668;23.364;2023-07-31T18:10:35;3.92;;;2.58;;
28625;SDS011;18905;42.668;23.364;2023-07-31T18:13:08;3.40;;;3.10;;
28625;SDS011;18905;42.668;23.364;2023-07-31T18:15:33;11.13;;;3.10;;
28625;SDS011;18905;42.668;23.364;2023-07-31T18:17:59;3.65;;;2.85;;
28625;SDS011;18905;42.668;23.364;2023-07-31T18:20:24;4.50;;;3.42;;
28625;SDS011;18905;42.668;23.364;2023-07-31T18:22:49;5.13;;;3.17;;
28625;SDS011;18905;42.668;23.364;2023-07-31T18:25:15;4.68;;;2.90;;
28625;SDS011;18905;42.668;23.364;2023-07-31T18:27:40;5.15;;;3.47;;
28625;SDS011;18905;42.668;23.364;2023-07-31T18:30:06;3.97;;;2.92;;
28625;SDS011;18905;42.668;23.364;2023-07-31T18:32:32;3.33;;;3.00;;
28625;SDS011;18905;42.668;23.364;2023-07-31T18:34:58;5.32;;;3.05;;
28625;SDS011;18905;42.668;23.364;2023-07-31T18:47:44;8.38;;;3.55;;
28625;SDS011;18905;42.668;23.364;2023-07-31T19:00:31;6.72;;;4.13;;
28625;SDS011;18905;42.668;23.364;2023-07-31T19:15:52;8.18;;;3.20;;
28625;SDS011;18905;42.668;23.364;2023-07-31T19:18:19;7.72;;;3.08;;
28625;SDS011;18905;42.668;23.364;2023-07-31T19:20:44;4.15;;;2.88;;
28625;SDS011;18905;42.668;23.364;2023-07-31T19:23:10;7.30;;;3.13;;